createdAt,value
2019-03-24T00:02:22.353Z,30.17
2019-03-24T00:04:57.790Z,27.67
2019-03-24T00:10:07.118Z,28.13
2019-03-24T00:12:42.590Z,27.03
2019-03-24T00:15:26.131Z,29.43
2019-03-24T00:20:28.911Z,29.27
2019-03-24T00:25:37.722Z,26.60
2019-03-24T00:28:13.297Z,26.90
2019-03-24T00:30:48.758Z,26.23
2019-03-24T00:33:24.298Z,26.93
2019-03-24T00:36:00.332Z,28.07
2019-03-24T00:38:35.953Z,27.52
2019-03-24T00:41:11.292Z,27.90
2019-03-24T00:43:46.793Z,27.47
2019-03-24T00:48:55.672Z,26.02
2019-03-24T00:51:31.291Z,27.70
2019-03-24T00:54:06.681Z,29.03
2019-03-24T00:59:15.667Z,26.63
2019-03-24T01:01:51.130Z,27.25
2019-03-24T01:04:26.676Z,26.90
2019-03-24T01:07:02.265Z,27.50
2019-03-24T01:09:37.677Z,27.97
2019-03-24T01:12:13.287Z,27.30
2019-03-24T01:14:48.654Z,27.67
2019-03-24T01:17:24.113Z,27.75
2019-03-24T01:19:59.690Z,28.23
2019-03-24T01:22:35.102Z,27.52
2019-03-24T01:25:10.897Z,28.47
2019-03-24T01:27:46.277Z,26.00
2019-03-24T01:30:22.133Z,28.98
2019-03-24T01:32:57.683Z,26.55
2019-03-24T01:35:32.896Z,26.27
2019-03-24T01:38:08.291Z,25.30
2019-03-24T01:40:43.688Z,26.73
2019-03-24T01:43:19.287Z,27.70
2019-03-24T01:47:58.709Z,26.37
2019-03-24T01:51:29.657Z,28.25
2019-03-24T01:56:38.695Z,28.53
2019-03-24T01:59:15.291Z,28.53
2019-03-24T02:01:50.698Z,28.03
2019-03-24T02:04:26.294Z,28.23
2019-03-24T02:07:01.724Z,29.40
2019-03-24T02:09:37.924Z,27.45
2019-03-24T02:14:46.805Z,28.60
2019-03-24T02:19:55.695Z,28.87
2019-03-24T02:25:06.285Z,27.75
2019-03-24T02:30:25.675Z,30.45
2019-03-24T02:33:01.125Z,29.87
2019-03-24T02:35:36.668Z,28.77
2019-03-24T02:38:12.157Z,28.67
2019-03-24T02:40:47.682Z,28.02
2019-03-24T02:45:56.677Z,26.95
2019-03-24T02:48:32.322Z,29.00
2019-03-24T02:51:08.282Z,29.33
2019-03-24T02:53:43.745Z,28.37
2019-03-24T02:58:52.683Z,28.60
2019-03-24T03:01:28.083Z,28.30
2019-03-24T03:04:03.681Z,28.53
2019-03-24T03:06:39.129Z,28.42
2019-03-24T03:09:14.691Z,28.52
2019-03-24T03:11:50.120Z,29.43
2019-03-24T03:14:25.694Z,28.47
2019-03-24T03:17:01.274Z,27.65
2019-03-24T03:19:37.019Z,28.37
2019-03-24T03:22:12.667Z,28.63
2019-03-24T03:24:48.295Z,29.57
2019-03-24T03:27:23.917Z,30.20
2019-03-24T03:32:32.954Z,28.93
2019-03-24T03:35:08.908Z,27.50
2019-03-24T03:40:18.431Z,28.05
2019-03-24T03:42:53.963Z,29.95
2019-03-24T03:45:31.278Z,28.27
2019-03-24T03:48:06.653Z,29.53
2019-03-24T03:50:42.274Z,28.83
2019-03-24T03:53:17.715Z,28.37
2019-03-24T03:58:26.787Z,29.20
2019-03-24T04:01:02.789Z,28.73
2019-03-24T04:06:11.857Z,29.20
2019-03-24T04:11:20.870Z,29.37
2019-03-24T04:16:29.894Z,29.12
2019-03-24T04:19:05.283Z,27.80
2019-03-24T04:21:40.687Z,30.53
2019-03-24T04:24:16.281Z,29.80
2019-03-24T04:26:51.654Z,28.50
2019-03-24T04:29:27.255Z,30.67
2019-03-24T04:32:02.691Z,28.30
2019-03-24T04:34:38.290Z,28.73
2019-03-24T04:37:13.760Z,31.97
2019-03-24T04:39:49.138Z,30.57
2019-03-24T04:42:24.699Z,30.87
2019-03-24T04:45:00.256Z,28.83
2019-03-24T04:47:35.708Z,30.23
2019-03-24T04:50:11.937Z,30.97
2019-03-24T04:52:47.281Z,29.82
2019-03-24T04:55:22.655Z,30.97
2019-03-24T04:59:23.641Z,28.60
2019-03-24T05:01:59.304Z,30.30
2019-03-24T05:04:34.923Z,30.13
2019-03-24T05:07:10.317Z,29.53
2019-03-24T05:09:46.276Z,30.07
2019-03-24T05:12:21.712Z,30.15
2019-03-24T05:14:57.278Z,30.17
2019-03-24T05:17:32.718Z,28.92
2019-03-24T05:22:42.881Z,31.05
2019-03-24T05:27:51.659Z,30.68
2019-03-24T05:30:27.116Z,29.23
2019-03-24T05:33:02.527Z,31.48
2019-03-24T05:35:37.897Z,30.45
2019-03-24T05:38:13.279Z,31.60
2019-03-24T05:40:48.690Z,30.13
2019-03-24T05:43:24.277Z,29.75
2019-03-24T05:46:00.293Z,30.15
2019-03-24T05:48:35.683Z,28.80
2019-03-24T05:53:44.783Z,29.23
2019-03-24T05:56:20.265Z,29.00
2019-03-24T05:58:55.693Z,27.77
2019-03-24T06:01:31.266Z,29.13
2019-03-24T06:04:06.687Z,28.77
2019-03-24T06:06:42.096Z,27.67
2019-03-24T06:09:17.656Z,28.57
2019-03-24T06:11:53.112Z,27.70
2019-03-24T06:14:28.696Z,30.10
2019-03-24T06:17:04.269Z,27.87
2019-03-24T06:19:39.694Z,27.60
2019-03-24T06:24:48.887Z,26.23
2019-03-24T06:29:58.261Z,25.65
2019-03-24T06:32:33.822Z,24.87
2019-03-24T06:35:10.259Z,27.73
2019-03-24T06:37:45.861Z,25.27
2019-03-24T06:42:57.728Z,23.50
2019-03-24T06:47:02.880Z,25.30
2019-03-24T06:52:12.097Z,24.98
2019-03-24T06:57:12.666Z,24.67
2019-03-24T06:59:48.267Z,25.17
2019-03-24T07:02:23.689Z,23.77
2019-03-24T07:04:59.274Z,25.05
2019-03-24T07:07:34.665Z,23.85
2019-03-24T07:10:10.427Z,25.75
2019-03-24T07:12:45.951Z,24.17
2019-03-24T07:15:21.581Z,25.15
2019-03-24T07:17:57.269Z,23.07
2019-03-24T07:20:32.907Z,25.68
2019-03-24T07:23:08.397Z,24.67
2019-03-24T07:25:43.939Z,24.27
2019-03-24T07:28:19.306Z,23.65
2019-03-24T07:30:55.276Z,23.77
2019-03-24T07:33:30.751Z,24.87
2019-03-24T07:38:42.128Z,22.00
2019-03-24T07:41:17.829Z,24.55
2019-03-24T07:43:53.271Z,24.40
2019-03-24T07:46:28.919Z,26.13
2019-03-24T07:49:04.640Z,24.37
2019-03-24T07:56:59.646Z,22.95
2019-03-24T07:59:35.287Z,23.77
2019-03-24T08:02:10.946Z,22.87
2019-03-24T08:04:46.361Z,22.20
2019-03-24T08:07:21.943Z,22.37
2019-03-24T08:09:57.713Z,21.20
2019-03-24T08:15:08.277Z,20.23
2019-03-24T08:17:43.849Z,20.00
2019-03-24T08:20:19.614Z,19.93
2019-03-24T08:22:55.271Z,19.70
2019-03-24T08:25:30.675Z,19.50
2019-03-24T08:30:43.109Z,20.10
2019-03-24T08:33:18.694Z,21.33
2019-03-24T08:38:27.849Z,20.70
2019-03-24T08:41:04.511Z,19.73
2019-03-24T08:43:39.864Z,20.30
2019-03-24T08:48:48.687Z,22.13
2019-03-24T08:51:24.288Z,21.23
2019-03-24T08:53:59.704Z,20.83
2019-03-24T08:56:35.279Z,21.27
2019-03-24T08:59:10.936Z,20.70
2019-03-24T09:01:46.734Z,19.83
2019-03-24T09:04:23.279Z,21.05
2019-03-24T09:06:59.303Z,21.60
2019-03-24T09:09:35.444Z,20.53
2019-03-24T09:12:11.432Z,19.87
2019-03-24T09:14:47.270Z,20.02
2019-03-24T09:17:22.740Z,20.45
2019-03-24T09:22:32.961Z,18.83
2019-03-24T09:25:10.768Z,17.00
2019-03-24T09:27:46.944Z,17.70
2019-03-24T09:30:37.459Z,17.43
2019-03-24T09:33:13.270Z,16.42
2019-03-24T09:35:49.735Z,19.02
2019-03-24T09:41:01.005Z,19.20
2019-03-24T09:43:37.402Z,20.17
2019-03-24T09:46:13.421Z,19.10
2019-03-24T09:48:49.646Z,16.95
2019-03-24T09:51:25.358Z,18.07
2019-03-24T09:54:01.581Z,18.27
2019-03-24T09:56:56.303Z,16.50
2019-03-24T09:59:32.280Z,16.07
2019-03-24T10:02:08.123Z,14.87
2019-03-24T10:04:44.297Z,16.93
2019-03-24T10:07:20.357Z,15.25
2019-03-24T10:09:56.364Z,14.40
2019-03-24T10:12:32.118Z,14.30
2019-03-24T10:15:07.968Z,15.87
2019-03-24T10:17:43.777Z,15.37
2019-03-24T10:22:53.612Z,14.38
2019-03-24T10:25:29.281Z,15.53
2019-03-24T10:28:05.480Z,16.60
2019-03-24T10:30:42.641Z,16.80
2019-03-24T10:33:18.892Z,16.40
2019-03-24T10:35:54.901Z,15.48
2019-03-24T10:38:31.362Z,15.00
2019-03-24T10:41:09.966Z,13.72
2019-03-24T10:43:46.304Z,15.83
2019-03-24T10:46:22.271Z,14.80
2019-03-24T10:48:58.492Z,14.67
2019-03-24T10:51:34.267Z,15.32
2019-03-24T10:54:09.683Z,13.20
2019-03-24T10:59:19.129Z,13.33
2019-03-24T11:01:54.941Z,14.27
2019-03-24T11:04:30.290Z,14.03
2019-03-24T11:07:05.653Z,14.70
2019-03-24T11:09:41.274Z,15.53
2019-03-24T11:12:16.390Z,17.70
2019-03-24T11:14:51.875Z,15.55
2019-03-24T11:17:27.181Z,15.20
2019-03-24T11:20:02.711Z,15.20
2019-03-24T11:25:12.715Z,16.45
2019-03-24T11:30:11.686Z,15.72
2019-03-24T11:32:47.276Z,14.95
2019-03-24T11:35:22.649Z,14.83
2019-03-24T11:37:58.282Z,14.80
2019-03-24T11:40:33.780Z,15.47
2019-03-24T11:45:43.285Z,15.15
2019-03-24T11:48:19.290Z,15.13
2019-03-24T11:50:55.871Z,15.53
2019-03-24T11:53:31.347Z,15.27
2019-03-24T11:56:09.290Z,15.57
2019-03-24T11:58:44.957Z,14.83
2019-03-24T12:01:20.667Z,14.97
2019-03-24T12:03:56.285Z,13.93
2019-03-24T12:06:31.759Z,116.50
2019-03-24T12:11:41.680Z,15.90
2019-03-24T12:14:17.283Z,15.85
2019-03-24T12:16:52.694Z,15.37
2019-03-24T12:19:28.282Z,16.00
2019-03-24T12:22:04.692Z,13.87
2019-03-24T12:27:13.901Z,14.30
2019-03-24T12:29:50.345Z,14.70
2019-03-24T12:32:25.894Z,13.72
2019-03-24T12:35:01.330Z,14.13
2019-03-24T12:37:36.706Z,14.53
2019-03-24T12:40:12.704Z,14.10
2019-03-24T12:42:48.281Z,14.30
2019-03-24T12:45:23.727Z,13.87
2019-03-24T12:50:33.283Z,13.00
2019-03-24T12:53:08.847Z,13.47
2019-03-24T12:55:45.294Z,13.40
2019-03-24T12:58:20.691Z,12.78
2019-03-24T13:00:56.284Z,12.28
2019-03-24T13:03:31.677Z,10.90
2019-03-24T13:06:09.358Z,11.93
2019-03-24T13:08:44.878Z,11.30
2019-03-24T13:13:53.880Z,11.80
2019-03-24T13:16:29.279Z,11.87
2019-03-24T13:19:04.711Z,11.50
2019-03-24T13:21:40.273Z,11.00
2019-03-24T13:24:15.663Z,10.47
2019-03-24T13:26:50.949Z,10.43
2019-03-24T13:29:26.285Z,10.00
2019-03-24T13:32:01.917Z,9.93
2019-03-24T13:34:37.580Z,9.67
2019-03-24T13:37:13.265Z,10.23
2019-03-24T13:39:48.708Z,10.17
2019-03-24T13:42:24.294Z,9.47
2019-03-24T13:44:59.681Z,9.43
2019-03-24T13:47:35.272Z,9.58
2019-03-24T13:50:10.706Z,9.67
2019-03-24T13:58:07.262Z,10.70
2019-03-24T14:00:42.699Z,9.33
2019-03-24T14:03:18.275Z,10.47
2019-03-24T14:05:53.694Z,11.03
2019-03-24T14:11:04.371Z,9.53
2019-03-24T14:13:39.949Z,10.63
2019-03-24T14:16:15.287Z,8.50
2019-03-24T14:18:50.672Z,9.98
2019-03-24T14:21:26.287Z,9.27
2019-03-24T14:24:01.680Z,9.58
2019-03-24T14:26:37.258Z,9.47
2019-03-24T14:29:12.664Z,9.48
2019-03-24T14:31:48.256Z,9.00
2019-03-24T14:38:18.272Z,8.80
2019-03-24T14:40:54.884Z,8.50
2019-03-24T14:46:58.333Z,8.60
2019-03-24T14:49:33.931Z,8.23
2019-03-24T14:52:09.329Z,8.83
2019-03-24T14:54:44.686Z,8.43
2019-03-24T14:57:20.271Z,8.67
2019-03-24T14:59:55.694Z,8.40
2019-03-24T15:02:31.275Z,8.60
2019-03-24T15:05:07.282Z,8.65
2019-03-24T15:07:42.662Z,7.90
2019-03-24T15:10:18.274Z,8.85
2019-03-24T15:12:53.676Z,7.80
2019-03-24T15:15:29.276Z,7.90
2019-03-24T15:18:05.268Z,7.77
2019-03-24T15:20:40.677Z,7.22
2019-03-24T15:23:16.280Z,7.47
2019-03-24T15:25:51.906Z,6.80
2019-03-24T15:31:01.765Z,6.30
2019-03-24T15:33:37.686Z,6.90
2019-03-24T15:36:13.680Z,6.22
2019-03-24T15:38:49.289Z,5.67
2019-03-24T15:41:24.692Z,6.53
2019-03-24T15:44:00.286Z,6.58
2019-03-24T15:46:35.678Z,5.80
2019-03-24T15:49:11.271Z,5.73
2019-03-24T15:51:46.668Z,6.30
2019-03-24T15:54:22.277Z,6.30
2019-03-24T15:56:57.705Z,6.30
2019-03-24T15:59:33.277Z,7.20
2019-03-24T16:02:08.696Z,6.80
2019-03-24T16:04:44.272Z,6.77
2019-03-24T16:07:19.650Z,6.70
2019-03-24T16:09:55.271Z,7.42
2019-03-24T16:12:30.657Z,7.10
2019-03-24T16:15:06.546Z,7.42
2019-03-24T16:17:42.286Z,7.85
2019-03-24T16:20:17.664Z,7.17
2019-03-24T16:22:53.280Z,6.83
2019-03-24T16:28:04.281Z,7.87
2019-03-24T16:30:39.793Z,7.62
2019-03-24T16:33:15.289Z,7.62
2019-03-24T16:35:50.676Z,8.13
2019-03-24T16:38:26.287Z,7.05
2019-03-24T16:41:04.301Z,7.67
2019-03-24T16:43:40.274Z,7.57
2019-03-24T16:46:15.779Z,8.93
2019-03-24T16:48:51.315Z,8.47
2019-03-24T16:51:26.882Z,8.50
2019-03-24T16:54:02.339Z,7.20
2019-03-24T16:56:37.749Z,7.17
2019-03-24T16:59:13.279Z,7.43
2019-03-24T17:01:48.809Z,7.62
2019-03-24T17:04:24.914Z,9.08
2019-03-24T17:07:00.493Z,7.20
2019-03-24T17:12:00.943Z,7.90
2019-03-24T17:14:36.398Z,7.67
2019-03-24T17:17:12.102Z,7.87
2019-03-24T17:19:47.698Z,8.05
2019-03-24T17:22:23.279Z,8.10
2019-03-24T17:24:58.943Z,8.13
2019-03-24T17:30:10.339Z,9.38
2019-03-24T17:32:47.275Z,16.60
2019-03-24T17:35:23.065Z,8.68
2019-03-24T17:37:58.783Z,8.00
2019-03-24T17:42:04.271Z,8.58
2019-03-24T17:44:40.006Z,7.90
2019-03-24T17:47:15.665Z,8.38
2019-03-24T17:49:51.279Z,9.65
2019-03-24T17:52:26.698Z,8.87
2019-03-24T17:55:02.379Z,9.50
2019-03-24T17:57:38.308Z,8.10
2019-03-24T18:00:16.719Z,8.77
2019-03-24T18:05:26.281Z,8.28
2019-03-24T18:08:01.902Z,9.90
2019-03-24T18:10:37.729Z,9.18
2019-03-24T18:13:14.280Z,10.23
2019-03-24T18:15:49.948Z,9.57
2019-03-24T18:18:25.685Z,8.70
2019-03-24T18:21:01.622Z,10.83
2019-03-24T18:23:37.621Z,11.47
2019-03-24T18:26:14.297Z,11.03
2019-03-24T18:28:49.896Z,66.40
2019-03-24T18:36:32.698Z,14.43
2019-03-24T18:39:11.333Z,14.03
2019-03-24T18:41:46.948Z,13.22
2019-03-24T18:44:22.315Z,14.57
2019-03-24T18:46:57.719Z,14.00
2019-03-24T18:52:22.599Z,16.12
2019-03-24T18:54:55.260Z,16.03
2019-03-24T18:57:30.750Z,16.02
2019-03-24T19:00:06.763Z,15.80
2019-03-24T19:05:16.669Z,18.27
2019-03-24T19:07:52.321Z,17.62
2019-03-24T19:10:27.772Z,17.10
2019-03-24T19:13:03.302Z,17.85
2019-03-24T19:15:39.314Z,18.55
2019-03-24T19:18:14.753Z,20.12
2019-03-24T19:20:50.424Z,19.15
2019-03-24T19:25:06.271Z,17.97
2019-03-24T19:27:41.759Z,16.73
2019-03-24T19:32:51.750Z,17.30
2019-03-24T19:38:02.665Z,17.62
2019-03-24T19:40:38.588Z,19.25
2019-03-24T19:43:14.276Z,43.67
2019-03-24T19:45:49.722Z,21.87
2019-03-24T19:50:58.876Z,17.40
2019-03-24T19:53:34.732Z,20.17
2019-03-24T19:58:46.971Z,17.73
2019-03-24T20:01:22.660Z,18.07
2019-03-24T20:03:58.277Z,18.67
2019-03-24T20:06:33.709Z,17.80
2019-03-24T20:09:11.707Z,19.05
2019-03-24T20:11:47.368Z,19.65
2019-03-24T20:16:02.703Z,17.67
2019-03-24T20:18:38.557Z,19.50
2019-03-24T20:21:14.275Z,18.57
2019-03-24T20:23:49.695Z,19.37
2019-03-24T20:28:59.947Z,20.05
2019-03-24T20:31:35.331Z,20.27
2019-03-24T20:34:10.957Z,23.25
2019-03-24T20:36:46.350Z,20.65
2019-03-24T20:39:22.097Z,22.52
2019-03-24T20:41:57.704Z,21.17
2019-03-24T20:44:33.280Z,20.85
2019-03-24T20:47:11.911Z,22.23
2019-03-24T20:49:47.343Z,22.55
2019-03-24T20:52:22.877Z,23.27
2019-03-24T20:54:58.287Z,22.77
2019-03-24T20:57:34.280Z,21.27
2019-03-24T21:00:11.285Z,23.20
2019-03-24T21:02:46.949Z,23.07
2019-03-24T21:05:22.686Z,21.80
2019-03-24T21:07:59.664Z,24.60
2019-03-24T21:10:35.294Z,21.40
2019-03-24T21:13:11.665Z,21.57
2019-03-24T21:15:47.279Z,23.45
2019-03-24T21:18:22.738Z,22.35
2019-03-24T21:20:58.290Z,22.62
2019-03-24T21:23:33.948Z,25.20
2019-03-24T21:28:46.695Z,23.27
2019-03-24T21:31:22.288Z,22.33
2019-03-24T21:33:57.955Z,25.07
2019-03-24T21:39:09.280Z,22.80
2019-03-24T21:41:44.695Z,24.15
2019-03-24T21:44:20.294Z,25.15
2019-03-24T21:46:55.718Z,24.47
2019-03-24T21:49:31.346Z,25.70
2019-03-24T21:53:43.344Z,25.32
2019-03-24T21:56:18.965Z,25.12
2019-03-24T21:58:54.647Z,25.47
2019-03-24T22:01:30.290Z,24.95
2019-03-24T22:04:05.756Z,24.70
2019-03-24T22:09:16.402Z,23.77
2019-03-24T22:11:52.317Z,22.93
2019-03-24T22:14:28.327Z,25.10
2019-03-24T22:17:04.508Z,25.10
2019-03-24T22:19:40.308Z,22.80
2019-03-24T22:22:16.309Z,21.37
2019-03-24T22:24:52.383Z,22.40
2019-03-24T22:27:28.398Z,22.15
2019-03-24T22:30:03.929Z,22.27
2019-03-24T22:32:39.984Z,21.93
2019-03-24T22:35:16.525Z,22.57
2019-03-24T22:37:52.572Z,21.60
2019-03-24T22:40:28.589Z,20.77
2019-03-24T22:43:04.346Z,20.37
2019-03-24T22:45:40.291Z,20.00
2019-03-24T22:48:16.318Z,19.20
2019-03-24T22:50:52.288Z,21.20
2019-03-24T22:53:28.304Z,20.97
2019-03-24T22:56:05.550Z,18.93
2019-03-24T22:58:41.371Z,19.37
2019-03-24T23:01:18.592Z,21.75
2019-03-24T23:03:54.587Z,21.63
2019-03-24T23:06:30.440Z,20.60
2019-03-24T23:09:07.291Z,19.85
2019-03-24T23:11:42.706Z,18.65
2019-03-24T23:16:42.311Z,20.27
2019-03-24T23:19:18.510Z,18.57
2019-03-24T23:21:54.625Z,20.82
2019-03-24T23:24:30.686Z,18.55
2019-03-24T23:27:06.682Z,18.55
2019-03-24T23:29:42.524Z,18.73
2019-03-24T23:32:18.392Z,17.90
2019-03-24T23:34:54.303Z,19.20
2019-03-24T23:37:30.357Z,15.70
2019-03-24T23:40:06.870Z,16.05
2019-03-24T23:42:42.327Z,16.82
2019-03-24T23:45:18.294Z,16.10
2019-03-24T23:47:53.962Z,15.60
2019-03-24T23:55:37.372Z,15.23
2019-03-24T23:58:13.779Z,15.60
